createdAt,value
2023-01-06T00:02:09.736Z,73.09
2023-01-06T00:04:42.908Z,73.05
2023-01-06T00:07:19.181Z,73.11
2023-01-06T00:09:52.030Z,73.27
2023-01-06T00:12:26.591Z,73.13
2023-01-06T00:14:59.020Z,73.13
2023-01-06T00:17:31.840Z,73.12
2023-01-06T00:20:05.010Z,72.94
2023-01-06T00:22:38.002Z,73.07
2023-01-06T00:25:12.471Z,73.33
2023-01-06T00:27:47.396Z,72.89
2023-01-06T00:30:20.441Z,73.00
2023-01-06T00:32:53.444Z,73.21
2023-01-06T00:35:26.027Z,73.15
2023-01-06T00:37:58.568Z,72.82
2023-01-06T00:40:31.037Z,72.52
2023-01-06T00:43:05.390Z,72.52
2023-01-06T00:45:38.495Z,72.71
2023-01-06T00:48:10.922Z,72.66
2023-01-06T00:50:43.929Z,72.68
2023-01-06T00:53:16.932Z,72.50
2023-01-06T00:55:49.454Z,72.50
2023-01-06T00:58:22.183Z,72.53
2023-01-06T01:00:55.788Z,72.42
2023-01-06T01:03:28.520Z,72.57
2023-01-06T01:06:04.483Z,72.50
2023-01-06T01:08:37.135Z,72.40
2023-01-06T01:11:31.381Z,72.80
2023-01-06T01:14:04.063Z,72.91
2023-01-06T01:16:36.501Z,72.73
2023-01-06T01:19:09.711Z,72.95
2023-01-06T01:21:44.637Z,72.81
2023-01-06T01:24:17.469Z,73.25
2023-01-06T01:26:50.734Z,73.38
2023-01-06T01:29:23.200Z,72.88
2023-01-06T01:31:56.587Z,72.89
2023-01-06T01:34:29.035Z,72.92
2023-01-06T01:37:01.859Z,73.15
2023-01-06T01:39:34.242Z,73.11
2023-01-06T01:42:08.313Z,73.18
2023-01-06T01:45:05.116Z,72.77
2023-01-06T01:47:46.011Z,73.13
2023-01-06T01:50:31.932Z,72.87
2023-01-06T01:53:08.785Z,71.72
2023-01-06T01:55:43.200Z,71.40
2023-01-06T01:58:19.783Z,71.14
2023-01-06T02:00:52.838Z,70.36
2023-01-06T02:03:27.540Z,69.90
2023-01-06T02:06:02.560Z,69.63
2023-01-06T02:08:39.496Z,69.18
2023-01-06T02:11:12.187Z,68.77
2023-01-06T02:13:47.740Z,68.78
2023-01-06T02:16:40.933Z,68.46
2023-01-06T02:19:32.413Z,68.38
2023-01-06T02:22:23.235Z,68.23
2023-01-06T02:25:29.586Z,68.29
2023-01-06T02:28:23.819Z,68.43
2023-01-06T02:31:34.897Z,68.23
2023-01-06T02:34:15.050Z,68.20
2023-01-06T02:36:59.819Z,67.99
2023-01-06T02:39:45.676Z,67.83
2023-01-06T02:42:23.771Z,68.03
2023-01-06T02:45:04.805Z,68.18
2023-01-06T02:47:45.260Z,68.47
2023-01-06T02:50:25.763Z,68.87
2023-01-06T02:53:07.872Z,68.74
2023-01-06T02:55:45.494Z,69.11
2023-01-06T02:58:27.749Z,69.21
2023-01-06T03:01:04.477Z,69.77
2023-01-06T03:03:40.810Z,70.21
2023-01-06T03:06:17.834Z,70.14
2023-01-06T03:08:53.354Z,70.28
2023-01-06T03:11:28.204Z,70.59
2023-01-06T03:14:00.973Z,70.92
2023-01-06T03:16:33.711Z,70.99
2023-01-06T03:19:07.040Z,71.21
2023-01-06T03:21:44.697Z,71.25
2023-01-06T03:24:18.809Z,71.50
2023-01-06T03:26:53.974Z,71.41
2023-01-06T03:29:25.432Z,71.41
2023-01-06T03:32:05.114Z,71.44
2023-01-06T03:34:58.131Z,71.37
2023-01-06T03:37:40.074Z,70.98
2023-01-06T03:40:26.350Z,70.93
2023-01-06T03:43:16.600Z,70.88
2023-01-06T03:46:03.698Z,70.54
2023-01-06T03:48:52.672Z,70.18
2023-01-06T03:51:38.192Z,69.91
2023-01-06T03:54:19.925Z,69.65
2023-01-06T03:56:58.727Z,69.61
2023-01-06T03:59:36.605Z,69.47
2023-01-06T04:02:09.752Z,69.21
2023-01-06T04:04:42.589Z,69.25
2023-01-06T04:07:16.247Z,69.38
2023-01-06T04:09:49.091Z,69.51
2023-01-06T04:12:40.097Z,69.00
2023-01-06T04:15:17.956Z,68.75
2023-01-06T04:17:52.013Z,69.01
2023-01-06T04:20:27.479Z,68.57
2023-01-06T04:23:11.571Z,68.80
2023-01-06T04:25:45.330Z,69.21
2023-01-06T04:28:44.195Z,68.88
2023-01-06T04:31:16.736Z,69.04
2023-01-06T04:33:49.267Z,69.15
2023-01-06T04:36:22.123Z,69.04
2023-01-06T04:38:57.070Z,69.24
2023-01-06T04:41:32.138Z,68.98
2023-01-06T04:44:04.697Z,68.88
2023-01-06T04:46:37.132Z,68.90
2023-01-06T04:49:09.879Z,68.96
2023-01-06T04:51:42.195Z,69.08
2023-01-06T04:54:14.573Z,68.97
2023-01-06T04:56:47.041Z,68.83
2023-01-06T04:59:19.632Z,68.96
2023-01-06T05:01:52.168Z,69.24
2023-01-06T05:04:25.049Z,68.85
2023-01-06T05:06:57.403Z,69.13
2023-01-06T05:09:29.836Z,69.46
2023-01-06T05:12:02.526Z,69.52
2023-01-06T05:14:35.037Z,69.78
2023-01-06T05:17:07.452Z,69.47
2023-01-06T05:19:41.789Z,69.31
2023-01-06T05:22:15.106Z,69.20
2023-01-06T05:24:47.478Z,68.92
2023-01-06T05:27:19.782Z,69.21
2023-01-06T05:29:52.273Z,69.19
2023-01-06T05:32:24.602Z,69.47
2023-01-06T05:34:57.024Z,69.28
2023-01-06T05:37:29.386Z,69.51
2023-01-06T05:40:01.829Z,69.14
2023-01-06T05:42:34.829Z,69.17
2023-01-06T05:45:10.391Z,69.29
2023-01-06T05:47:43.711Z,69.41
2023-01-06T05:50:16.172Z,69.21
2023-01-06T05:52:48.666Z,69.06
2023-01-06T05:55:21.069Z,68.79
2023-01-06T05:57:53.377Z,68.86
2023-01-06T06:00:26.433Z,68.72
2023-01-06T06:02:59.486Z,68.75
2023-01-06T06:05:31.937Z,69.01
2023-01-06T06:08:04.552Z,68.79
2023-01-06T06:10:37.017Z,68.79
2023-01-06T06:13:09.723Z,68.90
2023-01-06T06:15:42.045Z,68.90
2023-01-06T06:18:14.448Z,68.90
2023-01-06T06:20:47.550Z,69.00
2023-01-06T06:23:20.858Z,69.17
2023-01-06T06:25:54.150Z,69.13
2023-01-06T06:28:26.871Z,69.05
2023-01-06T06:31:04.091Z,68.72
2023-01-06T06:33:36.949Z,68.83
2023-01-06T06:36:16.201Z,68.67
2023-01-06T06:38:50.279Z,68.50
2023-01-06T06:41:24.126Z,68.46
2023-01-06T06:43:57.183Z,68.57
2023-01-06T06:46:29.498Z,68.56
2023-01-06T06:49:01.998Z,68.34
2023-01-06T06:51:35.597Z,68.45
2023-01-06T06:54:07.563Z,68.67
2023-01-06T06:56:39.902Z,68.39
2023-01-06T06:59:14.459Z,68.38
2023-01-06T07:01:46.896Z,68.52
2023-01-06T07:04:19.280Z,68.81
2023-01-06T07:06:58.958Z,68.56
2023-01-06T07:09:31.318Z,68.23
2023-01-06T07:12:03.874Z,67.91
2023-01-06T07:14:36.633Z,67.82
2023-01-06T07:17:09.199Z,67.54
2023-01-06T07:19:41.543Z,67.36
2023-01-06T07:22:14.057Z,66.98
2023-01-06T07:24:46.390Z,67.15
2023-01-06T07:27:19.016Z,66.79
2023-01-06T07:29:51.360Z,66.37
2023-01-06T07:32:23.805Z,66.24
2023-01-06T07:34:56.117Z,65.91
2023-01-06T07:37:28.580Z,65.58
2023-01-06T07:40:01.254Z,65.41
2023-01-06T07:42:33.821Z,65.09
2023-01-06T07:45:09.832Z,64.92
2023-01-06T07:47:42.646Z,64.88
2023-01-06T07:50:14.999Z,64.64
2023-01-06T07:52:47.447Z,64.61
2023-01-06T07:55:32.241Z,64.43
2023-01-06T07:58:11.424Z,64.26
2023-01-06T08:00:43.901Z,64.24
2023-01-06T08:03:16.367Z,64.34
2023-01-06T08:05:49.088Z,64.89
2023-01-06T08:08:22.434Z,64.84
2023-01-06T08:10:55.017Z,65.12
2023-01-06T08:13:27.590Z,65.78
2023-01-06T08:16:00.553Z,66.12
2023-01-06T08:18:33.762Z,66.33
2023-01-06T08:21:07.733Z,66.45
2023-01-06T08:23:40.859Z,66.50
2023-01-06T08:26:15.944Z,66.46
2023-01-06T08:28:49.201Z,66.76
2023-01-06T08:31:23.486Z,66.40
2023-01-06T08:33:55.978Z,66.65
2023-01-06T08:36:29.197Z,66.48
2023-01-06T08:39:01.739Z,66.49
2023-01-06T08:41:34.154Z,66.65
2023-01-06T08:44:07.266Z,66.61
2023-01-06T08:46:40.642Z,66.93
2023-01-06T08:49:13.206Z,66.74
2023-01-06T08:51:45.628Z,67.07
2023-01-06T08:54:18.384Z,67.13
2023-01-06T08:56:56.290Z,67.34
2023-01-06T08:59:33.878Z,67.37
2023-01-06T09:02:06.714Z,66.92
2023-01-06T09:04:39.984Z,66.50
2023-01-06T09:07:12.359Z,66.57
2023-01-06T09:09:44.861Z,66.27
2023-01-06T09:12:17.670Z,66.32
2023-01-06T09:14:50.704Z,66.37
2023-01-06T09:17:23.547Z,66.03
2023-01-06T09:19:55.996Z,65.82
2023-01-06T09:22:28.727Z,65.96
2023-01-06T09:25:01.313Z,65.90
2023-01-06T09:27:33.630Z,65.70
2023-01-06T09:30:08.159Z,65.95
2023-01-06T09:32:40.568Z,65.55
2023-01-06T09:35:13.620Z,65.55
2023-01-06T09:37:46.138Z,65.69
2023-01-06T09:40:24.781Z,65.60
2023-01-06T09:43:24.478Z,65.74
2023-01-06T09:46:03.022Z,65.76
2023-01-06T09:48:39.934Z,65.67
2023-01-06T09:51:22.082Z,65.53
2023-01-06T09:53:59.524Z,65.52
2023-01-06T09:56:32.663Z,65.91
2023-01-06T09:59:13.828Z,66.16
2023-01-06T10:01:52.326Z,66.36
2023-01-06T10:04:42.310Z,65.78
2023-01-06T10:07:47.937Z,65.59
2023-01-06T10:10:28.893Z,65.65
2023-01-06T10:13:17.251Z,65.47
2023-01-06T10:15:54.465Z,65.48
2023-01-06T10:18:38.278Z,65.50
2023-01-06T10:21:19.475Z,65.42
2023-01-06T10:24:08.402Z,65.59
2023-01-06T10:26:46.183Z,65.63
2023-01-06T10:29:21.320Z,65.51
2023-01-06T10:31:57.946Z,65.66
2023-01-06T10:34:33.907Z,65.73
2023-01-06T10:37:18.015Z,65.54
2023-01-06T10:39:57.145Z,65.61
2023-01-06T10:42:53.590Z,65.58
2023-01-06T10:45:30.775Z,65.58
2023-01-06T10:48:08.041Z,65.44
2023-01-06T10:50:40.979Z,65.57
2023-01-06T10:53:15.611Z,65.55
2023-01-06T10:55:53.208Z,65.21
2023-01-06T10:58:35.815Z,65.57
2023-01-06T11:01:12.971Z,65.53
2023-01-06T11:03:45.963Z,65.71
2023-01-06T11:06:25.342Z,65.70
2023-01-06T11:08:58.412Z,65.65
2023-01-06T11:11:31.707Z,65.58
2023-01-06T11:14:06.547Z,65.58
2023-01-06T11:16:39.862Z,65.60
2023-01-06T11:19:33.461Z,65.65
2023-01-06T11:22:07.213Z,65.77
2023-01-06T11:24:53.553Z,65.59
2023-01-06T11:27:26.228Z,65.60
2023-01-06T11:29:58.760Z,65.77
2023-01-06T11:32:32.596Z,65.51
2023-01-06T11:35:09.152Z,65.66
2023-01-06T11:37:43.410Z,65.57
2023-01-06T11:40:25.861Z,66.00
2023-01-06T11:43:03.390Z,65.71
2023-01-06T11:45:39.282Z,65.90
2023-01-06T11:48:20.479Z,66.00
2023-01-06T11:50:58.312Z,65.66
2023-01-06T11:53:33.565Z,66.02
2023-01-06T11:56:09.182Z,66.10
2023-01-06T11:58:55.056Z,66.11
2023-01-06T12:01:33.389Z,65.99
2023-01-06T12:04:13.834Z,66.06
2023-01-06T12:06:47.863Z,66.05
2023-01-06T12:09:25.578Z,66.13
2023-01-06T12:12:00.758Z,66.46
2023-01-06T12:14:36.808Z,67.17
2023-01-06T12:17:13.850Z,67.32
2023-01-06T12:19:51.156Z,67.26
2023-01-06T12:22:30.493Z,67.63
2023-01-06T12:25:04.070Z,67.92
2023-01-06T12:27:43.389Z,68.45
2023-01-06T12:30:24.248Z,69.30
2023-01-06T12:32:59.922Z,70.00
2023-01-06T12:35:37.857Z,70.65
2023-01-06T12:38:28.561Z,70.67
2023-01-06T12:41:07.095Z,71.20
2023-01-06T12:43:42.340Z,71.47
2023-01-06T12:46:22.729Z,71.72
2023-01-06T12:48:59.107Z,71.92
2023-01-06T12:51:37.129Z,71.74
2023-01-06T12:54:16.168Z,72.27
2023-01-06T12:57:06.600Z,72.74
2023-01-06T12:59:52.041Z,72.98
2023-01-06T13:02:43.208Z,73.75
2023-01-06T13:05:34.275Z,73.63
2023-01-06T13:08:22.675Z,74.13
2023-01-06T13:11:01.590Z,74.50
2023-01-06T13:13:50.599Z,74.66
2023-01-06T13:16:28.627Z,74.97
2023-01-06T13:19:13.696Z,74.70
2023-01-06T13:21:45.592Z,74.76
2023-01-06T13:24:31.461Z,74.97
2023-01-06T13:27:35.168Z,75.27
2023-01-06T13:30:27.251Z,75.02
2023-01-06T13:33:12.321Z,75.04
2023-01-06T13:35:58.276Z,75.33
2023-01-06T13:38:43.555Z,75.54
2023-01-06T13:41:19.885Z,76.09
2023-01-06T13:43:55.855Z,76.77
2023-01-06T13:46:31.943Z,76.59
2023-01-06T13:49:07.108Z,76.92
2023-01-06T13:51:44.405Z,76.63
2023-01-06T13:55:03.107Z,76.77
2023-01-06T13:57:39.193Z,76.67
2023-01-06T14:00:25.443Z,76.67
2023-01-06T14:03:27.806Z,76.71
2023-01-06T14:06:06.750Z,77.00
2023-01-06T14:08:49.164Z,77.18
2023-01-06T14:11:31.906Z,77.17
2023-01-06T14:14:08.673Z,77.47
2023-01-06T14:16:47.528Z,77.68
2023-01-06T14:19:23.123Z,77.47
2023-01-06T14:22:14.495Z,77.28
2023-01-06T14:24:53.598Z,77.46
2023-01-06T14:27:56.518Z,78.25
2023-01-06T14:30:31.841Z,78.16
2023-01-06T14:33:23.671Z,78.44
2023-01-06T14:36:05.149Z,78.24
2023-01-06T14:38:46.072Z,78.62
2023-01-06T14:41:26.080Z,78.50
2023-01-06T14:44:03.020Z,78.42
2023-01-06T14:46:41.310Z,79.16
2023-01-06T14:49:20.960Z,78.87
2023-01-06T14:51:58.947Z,78.50
2023-01-06T14:54:37.811Z,79.31
2023-01-06T14:57:27.674Z,79.48
2023-01-06T15:00:15.514Z,79.27
2023-01-06T15:02:51.516Z,79.09
2023-01-06T15:05:27.635Z,79.41
2023-01-06T15:08:05.845Z,79.00
2023-01-06T15:10:43.071Z,78.87
2023-01-06T15:13:29.832Z,79.03
2023-01-06T15:16:05.968Z,78.66
2023-01-06T15:18:43.443Z,79.14
2023-01-06T15:21:17.997Z,79.34
2023-01-06T15:23:53.426Z,79.37
2023-01-06T15:26:29.044Z,80.18
2023-01-06T15:29:06.212Z,80.47
2023-01-06T15:31:42.751Z,80.88
2023-01-06T15:34:18.977Z,80.80
2023-01-06T15:36:55.397Z,80.66
2023-01-06T15:39:31.366Z,81.00
2023-01-06T15:42:08.552Z,80.84
2023-01-06T15:44:43.457Z,80.81
2023-01-06T15:47:29.956Z,80.95
2023-01-06T15:50:05.118Z,80.99
2023-01-06T15:52:41.411Z,80.74
2023-01-06T15:55:28.901Z,81.28
2023-01-06T15:58:08.295Z,80.75
2023-01-06T16:00:49.304Z,81.66
2023-01-06T16:03:24.715Z,82.51
2023-01-06T16:06:12.292Z,82.34
2023-01-06T16:08:47.380Z,82.38
2023-01-06T16:11:49.479Z,82.60
2023-01-06T16:14:36.214Z,82.99
2023-01-06T16:17:12.218Z,84.04
2023-01-06T16:19:50.972Z,83.86
2023-01-06T16:22:38.830Z,83.94
2023-01-06T16:25:27.490Z,84.80
2023-01-06T16:28:02.367Z,84.11
2023-01-06T16:30:36.725Z,83.96
2023-01-06T16:33:39.039Z,83.80
2023-01-06T16:36:20.140Z,84.20
2023-01-06T16:38:52.835Z,84.82
2023-01-06T16:41:25.498Z,84.96
2023-01-06T16:43:58.059Z,84.94
2023-01-06T16:46:30.843Z,84.45
2023-01-06T16:49:11.172Z,85.30
2023-01-06T16:51:45.445Z,86.10
2023-01-06T16:54:18.912Z,86.49
2023-01-06T16:56:52.304Z,86.56
2023-01-06T16:59:25.644Z,86.36
2023-01-06T17:01:58.850Z,86.26
2023-01-06T17:04:32.307Z,86.76
2023-01-06T17:07:07.868Z,86.72
2023-01-06T17:09:41.607Z,86.78
2023-01-06T17:12:36.603Z,87.04
2023-01-06T17:15:13.782Z,87.19
2023-01-06T17:17:46.629Z,87.73
2023-01-06T17:20:19.656Z,88.64
2023-01-06T17:22:52.323Z,89.41
2023-01-06T17:25:25.583Z,90.41
2023-01-06T17:27:58.062Z,90.89
2023-01-06T17:30:30.548Z,91.37
2023-01-06T17:33:05.303Z,90.73
2023-01-06T17:35:37.708Z,89.89
2023-01-06T17:38:19.608Z,90.11
2023-01-06T17:40:54.925Z,90.77
2023-01-06T17:43:33.673Z,90.75
2023-01-06T17:46:20.543Z,90.51
2023-01-06T17:48:57.757Z,90.05
2023-01-06T17:51:30.374Z,89.93
2023-01-06T17:54:22.238Z,89.75
2023-01-06T17:56:55.315Z,89.25
2023-01-06T17:59:28.088Z,89.77
2023-01-06T18:02:02.011Z,90.37
2023-01-06T18:04:34.813Z,90.15
2023-01-06T18:07:15.134Z,90.31
2023-01-06T18:09:49.248Z,91.11
2023-01-06T18:12:22.224Z,92.02
2023-01-06T18:14:55.838Z,91.97
2023-01-06T18:17:30.285Z,92.56
2023-01-06T18:20:03.398Z,93.16
2023-01-06T18:22:40.747Z,93.22
2023-01-06T18:25:20.831Z,94.03
2023-01-06T18:27:54.205Z,95.44
2023-01-06T18:30:28.136Z,95.45
2023-01-06T18:33:02.155Z,95.86
2023-01-06T18:35:36.034Z,95.61
2023-01-06T18:38:09.143Z,95.49
2023-01-06T18:40:45.675Z,95.51
2023-01-06T18:43:27.883Z,94.70
2023-01-06T18:46:03.630Z,93.60
2023-01-06T18:48:39.276Z,93.50
2023-01-06T18:51:23.685Z,93.31
2023-01-06T18:54:09.292Z,92.67
2023-01-06T18:56:44.779Z,92.69
2023-01-06T18:59:27.445Z,92.63
2023-01-06T19:02:12.522Z,92.83
2023-01-06T19:04:49.282Z,93.07
2023-01-06T19:07:28.861Z,92.65
2023-01-06T19:10:04.151Z,92.18
2023-01-06T19:12:40.387Z,92.08
2023-01-06T19:15:27.896Z,91.72
2023-01-06T19:18:01.537Z,91.88
2023-01-06T19:20:39.576Z,91.88
2023-01-06T19:23:20.525Z,91.89
2023-01-06T19:26:01.425Z,91.56
2023-01-06T19:28:37.257Z,91.37
2023-01-06T19:31:22.549Z,91.33
2023-01-06T19:34:00.565Z,91.31
2023-01-06T19:36:47.147Z,91.09
2023-01-06T19:39:31.661Z,90.80
2023-01-06T19:42:18.482Z,91.07
2023-01-06T19:44:55.931Z,91.36
2023-01-06T19:47:35.830Z,91.20
2023-01-06T19:50:19.924Z,91.21
2023-01-06T19:52:58.890Z,91.10
2023-01-06T19:55:33.985Z,90.75
2023-01-06T19:58:15.436Z,90.26
2023-01-06T20:00:49.744Z,90.80
2023-01-06T20:03:30.492Z,91.43
2023-01-06T20:06:03.459Z,91.18
2023-01-06T20:08:36.451Z,90.86
2023-01-06T20:11:09.664Z,90.75
2023-01-06T20:13:43.567Z,90.22
2023-01-06T20:16:17.729Z,90.26
2023-01-06T20:18:51.286Z,90.21
2023-01-06T20:21:24.480Z,90.33
2023-01-06T20:23:58.794Z,90.06
2023-01-06T20:26:34.216Z,89.82
2023-01-06T20:29:08.369Z,90.19
2023-01-06T20:31:41.371Z,90.07
2023-01-06T20:34:14.695Z,90.39
2023-01-06T20:36:48.145Z,90.31
2023-01-06T20:39:21.577Z,89.83
2023-01-06T20:41:55.041Z,89.40
2023-01-06T20:44:28.195Z,89.05
2023-01-06T20:47:01.804Z,88.73
2023-01-06T20:49:35.156Z,88.53
2023-01-06T20:52:08.389Z,88.39
2023-01-06T20:54:42.151Z,88.31
2023-01-06T20:57:15.273Z,88.49
2023-01-06T20:59:49.098Z,88.34
2023-01-06T21:02:22.222Z,88.27
2023-01-06T21:04:55.442Z,88.15
2023-01-06T21:07:28.570Z,87.93
2023-01-06T21:10:01.441Z,87.60
2023-01-06T21:12:34.539Z,87.58
2023-01-06T21:15:10.419Z,87.69
2023-01-06T21:17:44.473Z,87.78
2023-01-06T21:20:17.920Z,87.92
2023-01-06T21:22:51.397Z,87.69
2023-01-06T21:25:25.235Z,87.57
2023-01-06T21:27:58.747Z,87.52
2023-01-06T21:30:32.818Z,87.48
2023-01-06T21:33:06.338Z,87.55
2023-01-06T21:35:39.764Z,87.22
2023-01-06T21:38:12.815Z,86.51
2023-01-06T21:40:46.015Z,86.16
2023-01-06T21:43:19.505Z,85.76
2023-01-06T21:45:53.051Z,85.59
2023-01-06T21:48:27.148Z,85.78
2023-01-06T21:51:00.137Z,85.30
2023-01-06T21:53:33.603Z,85.14
2023-01-06T21:56:08.718Z,84.73
2023-01-06T21:58:42.082Z,84.62
2023-01-06T22:01:15.862Z,84.50
2023-01-06T22:03:49.058Z,84.42
2023-01-06T22:06:24.083Z,84.31
2023-01-06T22:08:55.697Z,84.08
2023-01-06T22:11:29.052Z,84.08
2023-01-06T22:14:02.574Z,84.44
2023-01-06T22:16:36.120Z,84.38
2023-01-06T22:19:10.697Z,84.36
2023-01-06T22:21:45.705Z,84.32
2023-01-06T22:24:19.917Z,84.28
2023-01-06T22:26:52.967Z,84.07
2023-01-06T22:29:25.902Z,84.20
2023-01-06T22:32:04.204Z,84.47
2023-01-06T22:34:37.434Z,84.33
2023-01-06T22:37:10.496Z,84.34
2023-01-06T22:39:45.549Z,84.66
2023-01-06T22:42:19.563Z,84.89
2023-01-06T22:44:54.130Z,84.82
2023-01-06T22:47:27.337Z,84.85
2023-01-06T22:50:00.689Z,84.63
2023-01-06T22:52:33.873Z,84.50
2023-01-06T22:55:10.256Z,84.57
2023-01-06T22:57:43.300Z,85.05
2023-01-06T23:00:19.899Z,85.54
2023-01-06T23:02:52.793Z,85.41
2023-01-06T23:05:25.788Z,85.64
2023-01-06T23:07:58.539Z,85.67
2023-01-06T23:10:31.134Z,85.59
2023-01-06T23:13:04.396Z,85.14
2023-01-06T23:15:38.749Z,84.13
2023-01-06T23:18:12.727Z,83.19
2023-01-06T23:20:56.858Z,82.31
2023-01-06T23:23:30.739Z,81.80
2023-01-06T23:26:08.133Z,81.54
2023-01-06T23:28:41.358Z,81.24
2023-01-06T23:31:16.605Z,80.46
2023-01-06T23:33:51.166Z,80.28
2023-01-06T23:36:24.400Z,79.86
2023-01-06T23:38:58.191Z,80.11
2023-01-06T23:41:34.780Z,80.28
2023-01-06T23:44:11.805Z,80.08
2023-01-06T23:46:48.726Z,79.99
2023-01-06T23:49:32.943Z,80.38
2023-01-06T23:52:07.323Z,80.16
2023-01-06T23:54:46.253Z,79.84
2023-01-06T23:57:21.555Z,79.84
2023-01-06T23:59:56.579Z,80.17
